Time;durP1;ratioP1;P1;durP2;ratioP2;P2;SDS_P1;SDS_P2;PMS_P1;PMS_P2;Temp;Humidity;BMP_temperature;BMP_pressure;BME280_temperature;BME280_humidity;BME280_pressure;Samples;Min_cycle;Max_cycle;Signal;HPM_P1;HPM_P2
2022/01/26 00:08:16;;;;;;;;;;;;;;;-139.48;100.00;61774.03;5015652;28;19928;-69
2022/01/26 00:11:00;;;;;;;;;;;;;;;-139.48;100.00;61774.03;5000655;28;19924;-68
2022/01/26 00:13:44;;;;;;;;;;;;;;;-139.48;100.00;61774.03;5015338;28;19925;-68
2022/01/26 00:16:39;;;;;;;;;;;;;;;-139.48;100.00;61774.03;5000358;28;19944;-68
2022/01/26 00:19:27;;;;;;;;;;;;;;;-139.48;100.00;61774.03;5014584;28;20296;-67
2022/01/26 00:22:13;;;;;;;;;;;;;;;-139.48;100.00;61774.03;5014097;28;19924;-68
2022/01/26 00:39:43;;;;;;;;;;;;;;;-139.48;100.00;61774.03;5014922;28;19923;-68
2022/01/26 00:42:33;;;;;;;;;;;;;;;-139.48;100.00;61774.03;5015012;28;19925;-68
2022/01/26 00:45:21;;;;;;;;;;;;;;;-139.48;100.00;61774.03;5014020;28;20071;-69
2022/01/26 00:48:07;;;;;;;;;;;;;;;-139.48;100.00;61774.03;5000473;28;20059;-69
2022/01/26 00:50:52;;;;;;;;;;;;;;;-139.48;100.00;61774.03;5013573;28;19925;-68
2022/01/26 00:53:42;;;;;;;;;;;;;;;-139.48;100.00;61774.03;5013846;28;19928;-68
2022/01/26 00:56:26;;;;;;;;;;;;;;;-139.48;100.00;61774.03;5013023;28;19932;-68
2022/01/26 00:59:11;;;;;;;;;;;;;;;-139.48;100.00;61774.03;5015000;28;20046;-68
2022/01/26 01:01:55;;;;;;;;;;;;;;;-139.48;100.00;61774.03;5013412;28;19980;-68
2022/01/26 01:04:40;;;;;;;;;;;;;;;-139.48;100.00;61774.03;5013586;28;19924;-68
2022/01/26 01:07:24;;;;;;;;;;;;;;;-139.48;100.00;61774.03;5014883;28;19925;-68
2022/01/26 01:10:09;;;;;;;;;;;;;;;-139.48;100.00;61774.03;5014444;28;19924;-69
2022/01/26 01:12:56;;;;;;;;;;;;;;;-139.48;100.00;61774.03;5014407;28;19983;-68
2022/01/26 01:15:41;;;;;;;;;;;;;;;-139.48;100.00;61774.03;5013476;28;19928;-69
2022/01/26 01:18:55;;;;;;;;;;;;;;;-139.48;100.00;61774.03;5013239;28;20468;-68
2022/01/26 01:30:31;;;;;;;;;;;;;;;-139.48;100.00;61774.03;5014162;28;19963;-68
2022/01/26 01:33:20;;;;;;;;;;;;;;;-139.48;100.00;61774.03;5013158;28;19988;-68
2022/01/26 01:36:05;;;;;;;;;;;;;;;-139.48;100.00;61774.03;5014048;28;19928;-68
2022/01/26 01:38:49;;;;;;;;;;;;;;;-139.48;100.00;61774.03;5012968;28;19924;-68
2022/01/26 01:41:34;;;;;;;;;;;;;;;-139.48;100.00;61774.03;5013786;28;19975;-68
2022/01/26 01:44:17;;;;;;;;;;;;;;;-139.48;100.00;61774.03;5013725;28;19967;-68
2022/01/26 01:47:02;;;;;;;;;;;;;;;-139.48;100.00;61774.03;5012921;28;19925;-68
2022/01/26 01:49:45;;;;;;;;;;;;;;;-139.48;100.00;61774.03;5013693;28;20300;-68
2022/01/26 01:52:29;;;;;;;;;;;;;;;-139.48;100.00;61774.03;5013932;28;19924;-69
2022/01/26 01:55:15;;;;;;;;;;;;;;;-139.48;100.00;61774.03;5013528;28;20285;-68
2022/01/26 01:58:00;;;;;;;;;;;;;;;-139.48;100.00;61774.03;5012801;28;19925;-68
2022/01/26 02:00:44;;;;;;;;;;;;;;;-139.48;100.00;61774.03;5013890;28;19940;-68
2022/01/26 02:03:27;;;;;;;;;;;;;;;-139.48;100.00;61774.03;4998854;28;20001;-68
2022/01/26 02:06:11;;;;;;;;;;;;;;;-139.48;100.00;61774.03;5013434;28;19924;-68
2022/01/26 02:08:55;;;;;;;;;;;;;;;-139.48;100.00;61774.03;5012993;28;19925;-68
2022/01/26 02:11:43;;;;;;;;;;;;;;;-139.48;100.00;61774.03;5013979;28;19925;-68
2022/01/26 02:14:32;;;;;;;;;;;;;;;-139.48;100.00;61774.03;5013920;28;19924;-69
2022/01/26 02:17:47;;;;;;;;;;;;;;;-139.48;100.00;61774.03;5013440;28;20432;-68
2022/01/26 02:56:48;;;;;;;;;;;;;;;-139.48;100.00;61774.03;5012189;28;20031;-68
2022/01/26 03:05:11;;;;;;;;;;;;;;;-139.48;100.00;61774.03;5013444;28;19956;-68
2022/01/26 03:08:00;;;;;;;;;;;;;;;-139.48;100.00;61774.03;5012833;28;20048;-68
2022/01/26 03:10:52;;;;;;;;;;;;;;;-139.48;100.00;61774.03;5013132;28;19924;-68
2022/01/26 03:13:42;;;;;;;;;;;;;;;-139.48;100.00;61774.03;5013023;28;19975;-68
2022/01/26 03:16:41;;;;;;;;;;;;;;;-139.48;100.00;61774.03;5011914;28;19933;-69
2022/01/26 03:19:42;;;;;;;;;;;;;;;-139.48;100.00;61774.03;5014598;28;20068;-68
2022/01/26 03:28:36;;;;;;;;;;;;;;;-139.48;100.00;61774.03;5016472;28;19924;-69
2022/01/26 03:34:25;;;;;;;;;;;;;;;-139.48;100.00;61774.03;5016137;28;20372;-68
2022/01/26 03:37:09;;;;;;;;;;;;;;;-139.48;100.00;61774.03;5015024;28;19928;-69
2022/01/26 03:39:53;;;;;;;;;;;;;;;-139.48;100.00;61774.03;5001480;28;20042;-68
2022/01/26 03:42:37;;;;;;;;;;;;;;;-139.48;100.00;61774.03;5016259;28;19940;-69
2022/01/26 03:45:21;;;;;;;;;;;;;;;-139.48;100.00;61774.03;5015047;28;19924;-68
2022/01/26 03:48:05;;;;;;;;;;;;;;;-139.48;100.00;61774.03;5015099;28;19940;-69
2022/01/26 03:50:49;;;;;;;;;;;;;;;-139.48;100.00;61774.03;5014894;28;20303;-68
2022/01/26 03:53:33;;;;;;;;;;;;;;;-139.48;100.00;61774.03;5014903;28;20023;-68
2022/01/26 03:56:17;;;;;;;;;;;;;;;-139.48;100.00;61774.03;5000737;28;19933;-69
2022/01/26 03:59:00;;;;;;;;;;;;;;;-139.48;100.00;61774.03;5014859;28;19924;-69
2022/01/26 04:01:44;;;;;;;;;;;;;;;-139.48;100.00;61774.03;5014628;28;19927;-69
2022/01/26 04:04:33;;;;;;;;;;;;;;;-139.48;100.00;61774.03;5000746;28;19960;-69
2022/01/26 04:07:17;;;;;;;;;;;;;;;-139.48;100.00;61774.03;5015095;28;20431;-69
2022/01/26 04:10:10;;;;;;;;;;;;;;;-139.48;100.00;61774.03;5015516;28;20353;-68
2022/01/26 04:12:54;;;;;;;;;;;;;;;-139.48;100.00;61774.03;5016065;28;19940;-68
2022/01/26 04:15:38;;;;;;;;;;;;;;;-139.48;100.00;61774.03;5015540;28;19975;-68
2022/01/26 04:18:29;;;;;;;;;;;;;;;-139.48;100.00;61774.03;5015831;28;19924;-69
2022/01/26 04:24:32;;;;;;;;;;;;;;;-139.48;100.00;61774.03;5014482;28;20384;-69
2022/01/26 04:27:23;;;;;;;;;;;;;;;-139.48;100.00;61774.03;5014482;28;19944;-69
2022/01/26 04:30:07;;;;;;;;;;;;;;;-139.48;100.00;61774.03;5013274;28;19967;-69
2022/01/26 04:32:51;;;;;;;;;;;;;;;-139.48;100.00;61774.03;5014354;28;19924;-68
2022/01/26 04:35:35;;;;;;;;;;;;;;;-139.48;100.00;61774.03;5014873;28;20062;-68
2022/01/26 04:38:25;;;;;;;;;;;;;;;-139.48;100.00;61774.03;5015748;28;20080;-68
2022/01/26 04:41:31;;;;;;;;;;;;;;;-139.48;100.00;61774.03;5014968;28;20261;-68
2022/01/26 04:44:24;;;;;;;;;;;;;;;-139.48;100.00;61774.03;5015030;28;20023;-68
2022/01/26 04:47:07;;;;;;;;;;;;;;;-139.48;100.00;61774.03;5014052;28;19945;-68
2022/01/26 04:49:51;;;;;;;;;;;;;;;-139.48;100.00;61774.03;4999834;28;19980;-68
2022/01/26 04:52:35;;;;;;;;;;;;;;;-139.48;100.00;61774.03;5014931;28;20288;-67
2022/01/26 04:55:19;;;;;;;;;;;;;;;-139.48;100.00;61774.03;5013787;28;20261;-70
2022/01/26 04:58:03;;;;;;;;;;;;;;;-139.48;100.00;61774.03;5014650;28;19924;-67
2022/01/26 05:00:47;;;;;;;;;;;;;;;-139.48;100.00;61774.03;5014672;28;20025;-67
2022/01/26 05:03:30;;;;;;;;;;;;;;;-139.48;100.00;61774.03;5000151;28;19924;-70
2022/01/26 05:06:14;;;;;;;;;;;;;;;-139.48;100.00;61774.03;5013560;28;19929;-70
2022/01/26 05:08:58;;;;;;;;;;;;;;;-139.48;100.00;61774.03;4999743;28;20052;-70
2022/01/26 05:11:43;;;;;;;;;;;;;;;-139.48;100.00;61774.03;5014503;28;19925;-67
2022/01/26 05:14:28;;;;;;;;;;;;;;;-139.48;100.00;61774.03;5014556;28;19940;-67
2022/01/26 05:17:13;;;;;;;;;;;;;;;-139.48;100.00;61774.03;5014416;28;19928;-68
2022/01/26 05:20:00;;;;;;;;;;;;;;;-139.48;100.00;61774.03;5013127;28;19928;-67
2022/01/26 05:22:44;;;;;;;;;;;;;;;-139.48;100.00;61774.03;5014089;28;19925;-68
2022/01/26 05:25:28;;;;;;;;;;;;;;;-139.48;100.00;61774.03;5013682;28;20028;-68
2022/01/26 05:28:12;;;;;;;;;;;;;;;-139.48;100.00;61774.03;5014013;28;19985;-67
2022/01/26 05:33:44;;;;;;;;;;;;;;;-139.48;100.00;61774.03;4973814;28;19934;-74
2022/01/26 05:36:27;;;;;;;;;;;;;;;-139.48;100.00;61774.03;4987573;28;19998;-72
2022/01/26 05:39:11;;;;;;;;;;;;;;;-139.48;100.00;61774.03;4987578;28;20036;-74
2022/01/26 05:41:57;;;;;;;;;;;;;;;-139.48;100.00;61774.03;4974195;28;20293;-73
2022/01/26 05:44:41;;;;;;;;;;;;;;;-139.48;100.00;61774.03;4973646;28;19925;-74
2022/01/26 05:47:24;;;;;;;;;;;;;;;-139.48;100.00;61774.03;4973827;28;20085;-74
2022/01/26 05:50:08;;;;;;;;;;;;;;;-139.48;100.00;61774.03;4974891;28;20003;-73
2022/01/26 05:52:52;;;;;;;;;;;;;;;-139.48;100.00;61774.03;4973630;28;19980;-73
2022/01/26 05:55:36;;;;;;;;;;;;;;;-139.48;100.00;61774.03;4973422;28;20289;-72
2022/01/26 05:58:20;;;;;;;;;;;;;;;-139.48;100.00;61774.03;4975037;28;19924;-73
2022/01/26 06:01:04;;;;;;;;;;;;;;;-139.48;100.00;61774.03;4974537;28;20306;-73
2022/01/26 06:03:48;;;;;;;;;;;;;;;-139.48;100.00;61774.03;4973724;28;19929;-72
2022/01/26 06:06:32;;;;;;;;;;;;;;;-139.48;100.00;61774.03;4973616;28;20401;-74
2022/01/26 06:09:16;;;;;;;;;;;;;;;-139.48;100.00;61774.03;4973822;28;19968;-74
2022/01/26 06:12:00;;;;;;;;;;;;;;;-139.48;100.00;61774.03;4973404;28;19925;-74
2022/01/26 06:14:44;;;;;;;;;;;;;;;-139.48;100.00;61774.03;4973238;28;19964;-73
2022/01/26 06:17:28;;;;;;;;;;;;;;;-139.48;100.00;61774.03;4987039;28;19945;-73
2022/01/26 06:20:12;;;;;;;;;;;;;;;-139.48;100.00;61774.03;4974790;28;20339;-74
2022/01/26 06:22:56;;;;;;;;;;;;;;;-139.48;100.00;61774.03;4973483;28;20284;-73
2022/01/26 06:25:40;;;;;;;;;;;;;;;-139.48;100.00;61774.03;4987099;28;19925;-72
2022/01/26 06:28:26;;;;;;;;;;;;;;;-139.48;100.00;61774.03;4974177;28;19925;-73
2022/01/26 06:31:14;;;;;;;;;;;;;;;-139.48;100.00;61774.03;4973505;28;19924;-73
2022/01/26 06:34:01;;;;;;;;;;;;;;;-139.48;100.00;61774.03;4974119;28;20408;-73
2022/01/26 06:36:45;;;;;;;;;;;;;;;-139.48;100.00;61774.03;4973259;28;19930;-74
2022/01/26 06:39:29;;;;;;;;;;;;;;;-139.48;100.00;61774.03;4974091;28;19929;-74
2022/01/26 06:42:14;;;;;;;;;;;;;;;-139.48;100.00;61774.03;4974276;28;19925;-74
2022/01/26 06:50:44;;;;;;;;;;;;;;;-139.48;100.00;61774.03;4974536;28;19924;-74
2022/01/26 06:53:28;;;;;;;;;;;;;;;-139.48;100.00;61774.03;4974745;28;20466;-74
2022/01/26 06:56:11;;;;;;;;;;;;;;;-139.48;100.00;61774.03;4976646;28;19993;-73
2022/01/26 06:58:55;;;;;;;;;;;;;;;-139.48;100.00;61774.03;4977708;28;19969;-74
2022/01/26 07:01:40;;;;;;;;;;;;;;;-139.48;100.00;61774.03;4990307;28;19925;-72
2022/01/26 07:04:23;;;;;;;;;;;;;;;-139.48;100.00;61774.03;4976763;28;19990;-73
2022/01/26 07:07:07;;;;;;;;;;;;;;;-139.48;100.00;61774.03;4990569;28;19972;-74
2022/01/26 07:09:51;;;;;;;;;;;;;;;-139.48;100.00;61774.03;4990503;28;19953;-75
2022/01/26 07:12:35;;;;;;;;;;;;;;;-139.48;100.00;61774.03;4977417;28;20401;-73
2022/01/26 07:21:26;;;;;;;;;;;;;;;-139.48;100.00;61774.03;4977329;28;19925;-74
2022/01/26 07:24:10;;;;;;;;;;;;;;;-139.48;100.00;61774.03;4977220;28;20385;-74
2022/01/26 07:26:54;;;;;;;;;;;;;;;-139.48;100.00;61774.03;4976723;28;19965;-74
2022/01/26 07:29:38;;;;;;;;;;;;;;;-139.48;100.00;61774.03;4976441;28;19929;-73
2022/01/26 07:32:24;;;;;;;;;;;;;;;-139.48;100.00;61774.03;4977688;28;19968;-74
2022/01/26 07:35:08;;;;;;;;;;;;;;;-139.48;100.00;61774.03;4977464;28;19972;-74
2022/01/26 07:37:57;;;;;;;;;;;;;;;-139.48;100.00;61774.03;4976970;28;19929;-74
2022/01/26 07:40:42;;;;;;;;;;;;;;;-139.48;100.00;61774.03;4976327;28;19925;-74
2022/01/26 07:43:26;;;;;;;;;;;;;;;-139.48;100.00;61774.03;4976141;28;19940;-73
2022/01/26 07:46:10;;;;;;;;;;;;;;;-139.48;100.00;61774.03;4977109;28;19941;-71
2022/01/26 07:48:54;;;;;;;;;;;;;;;-139.48;100.00;61774.03;4976129;28;19925;-74
2022/01/26 07:51:38;;;;;;;;;;;;;;;-139.48;100.00;61774.03;4975815;28;20017;-74
2022/01/26 07:54:23;;;;;;;;;;;;;;;-139.48;100.00;61774.03;4976948;28;20029;-74
2022/01/26 07:57:07;;;;;;;;;;;;;;;-139.48;100.00;61774.03;4976770;28;19989;-74
2022/01/26 07:59:52;;;;;;;;;;;;;;;-139.48;100.00;61774.03;4976583;28;19966;-74
2022/01/26 08:02:36;;;;;;;;;;;;;;;-139.48;100.00;61774.03;4975791;28;20321;-73
2022/01/26 08:05:21;;;;;;;;;;;;;;;-139.48;100.00;61774.03;4975284;28;20266;-73
2022/01/26 08:08:05;;;;;;;;;;;;;;;-139.48;100.00;61774.03;4977032;28;19925;-74
2022/01/26 08:10:50;;;;;;;;;;;;;;;-139.48;100.00;61774.03;4975934;28;19941;-71
2022/01/26 08:13:34;;;;;;;;;;;;;;;-139.48;100.00;61774.03;4975530;28;19925;-74
2022/01/26 08:16:18;;;;;;;;;;;;;;;-139.48;100.00;61774.03;4976266;28;20409;-74
2022/01/26 08:19:01;;;;;;;;;;;;;;;-139.48;100.00;61774.03;4976691;28;19978;-74
2022/01/26 08:21:45;;;;;;;;;;;;;;;-139.48;100.00;61774.03;4975351;28;19926;-74
2022/01/26 08:24:29;;;;;;;;;;;;;;;-139.48;100.00;61774.03;4976214;28;19926;-73
2022/01/26 08:27:15;;;;;;;;;;;;;;;-139.48;100.00;61774.03;4975360;28;19925;-73
2022/01/26 08:30:07;;;;;;;;;;;;;;;-139.48;100.00;61774.03;4976204;28;20016;-73
2022/01/26 08:32:51;;;;;;;;;;;;;;;-139.48;100.00;61774.03;4988758;28;19969;-73
2022/01/26 08:35:35;;;;;;;;;;;;;;;-139.48;100.00;61774.03;4974847;28;19933;-73
2022/01/26 08:38:19;;;;;;;;;;;;;;;-139.48;100.00;61774.03;4976183;28;20360;-74
2022/01/26 08:41:03;;;;;;;;;;;;;;;-139.48;100.00;61774.03;4975302;28;20013;-74
2022/01/26 08:43:47;;;;;;;;;;;;;;;-139.48;100.00;61774.03;4975795;28;19925;-74
2022/01/26 08:46:31;;;;;;;;;;;;;;;-139.48;100.00;61774.03;4974749;28;19925;-74
2022/01/26 08:49:15;;;;;;;;;;;;;;;-139.48;100.00;61774.03;4974913;28;19925;-74
2022/01/26 08:51:59;;;;;;;;;;;;;;;-139.48;100.00;61774.03;4976053;28;19925;-72
2022/01/26 08:54:43;;;;;;;;;;;;;;;-139.48;100.00;61774.03;4975834;28;19951;-72
2022/01/26 08:57:27;;;;;;;;;;;;;;;-139.48;100.00;61774.03;4988303;28;20021;-74
2022/01/26 09:00:11;;;;;;;;;;;;;;;-139.48;100.00;61774.03;4975531;28;20012;-73
2022/01/26 09:02:55;;;;;;;;;;;;;;;-139.48;100.00;61774.03;4974515;28;20362;-73
2022/01/26 09:05:38;;;;;;;;;;;;;;;-139.48;100.00;61774.03;4988322;28;19933;-73
2022/01/26 09:08:25;;;;;;;;;;;;;;;-139.48;100.00;61774.03;4974302;28;19968;-74
2022/01/26 09:11:09;;;;;;;;;;;;;;;-139.48;100.00;61774.03;4975233;28;19972;-73
2022/01/26 09:13:57;;;;;;;;;;;;;;;-139.48;100.00;61774.03;4974430;28;19925;-74
2022/01/26 09:16:42;;;;;;;;;;;;;;;-139.48;100.00;61774.03;4987184;28;20301;-73
2022/01/26 09:19:31;;;;;;;;;;;;;;;-139.48;100.00;61774.03;4975650;28;20025;-74
2022/01/26 09:22:16;;;;;;;;;;;;;;;-139.48;100.00;61774.03;4975140;28;20033;-73
2022/01/26 09:25:00;;;;;;;;;;;;;;;-139.48;100.00;61774.03;4973897;28;20069;-71
2022/01/26 09:27:44;;;;;;;;;;;;;;;-139.48;100.00;61774.03;4974410;28;19925;-73
2022/01/26 09:30:28;;;;;;;;;;;;;;;-139.48;100.00;61774.03;4974480;28;19972;-75
2022/01/26 09:33:12;;;;;;;;;;;;;;;-139.48;100.00;61774.03;4973657;28;19989;-73
2022/01/26 09:35:56;;;;;;;;;;;;;;;-139.48;100.00;61774.03;4973726;28;20021;-74
2022/01/26 09:38:40;;;;;;;;;;;;;;;-139.48;100.00;61774.03;4975333;28;20365;-73
2022/01/26 09:41:24;;;;;;;;;;;;;;;-139.48;100.00;61774.03;4987522;28;19984;-74
2022/01/26 09:44:07;;;;;;;;;;;;;;;-139.48;100.00;61774.03;4974989;28;20389;-74
2022/01/26 09:46:52;;;;;;;;;;;;;;;-139.48;100.00;61774.03;4974946;28;19925;-74
2022/01/26 09:49:36;;;;;;;;;;;;;;;-139.48;100.00;61774.03;4974001;28;20009;-73
2022/01/26 09:52:26;;;;;;;;;;;;;;;-139.48;100.00;61774.03;4973538;28;19969;-72
2022/01/26 09:55:10;;;;;;;;;;;;;;;-139.48;100.00;61774.03;4974758;28;19976;-74
2022/01/26 09:57:58;;;;;;;;;;;;;;;-139.48;100.00;61774.03;4973450;28;20416;-73
2022/01/26 10:00:42;;;;;;;;;;;;;;;-139.48;100.00;61774.03;4975041;28;19925;-73
2022/01/26 10:03:32;;;;;;;;;;;;;;;-139.48;100.00;61774.03;4973673;28;20068;-73
2022/01/26 10:06:22;;;;;;;;;;;;;;;-139.48;100.00;61774.03;4960652;28;19941;-72
2022/01/26 10:09:38;;;;;;;;;;;;;;;-139.48;100.00;61774.03;4974692;28;20341;-71
2022/01/26 10:15:49;;;;;;;;;;;;;;;-139.48;100.00;61774.03;4965412;28;19973;-72
2022/01/26 10:18:33;;;;;;;;;;;;;;;-139.48;100.00;61774.03;4973657;28;19973;-73
2022/01/26 10:21:17;;;;;;;;;;;;;;;-139.48;100.00;61774.03;4986962;28;20409;-73
2022/01/26 10:24:10;;;;;;;;;;;;;;;-139.48;100.00;61774.03;4973193;28;19925;-73
2022/01/26 10:26:59;;;;;;;;;;;;;;;-139.48;100.00;61774.03;4973824;28;19925;-73
2022/01/26 10:29:45;;;;;;;;;;;;;;;-139.48;100.00;61774.03;4977362;28;19989;-73
2022/01/26 10:32:33;;;;;;;;;;;;;;;-139.48;100.00;61774.03;4963419;28;19956;-71
2022/01/26 10:35:16;;;;;;;;;;;;;;;-139.48;100.00;61774.03;4977242;28;19929;-74
2022/01/26 10:38:00;;;;;;;;;;;;;;;-139.48;100.00;61774.03;4978308;28;19925;-74
2022/01/26 10:40:44;;;;;;;;;;;;;;;-139.48;100.00;61774.03;4977005;28;20008;-73
2022/01/26 10:43:30;;;;;;;;;;;;;;;-139.48;100.00;61774.03;4977948;28;19971;-73
2022/01/26 10:46:24;;;;;;;;;;;;;;;-139.48;100.00;61774.03;4977227;28;19927;-73
2022/01/26 10:49:42;;;;;;;;;;;;;;;-139.48;100.00;61774.03;4976833;28;20389;-74
2022/01/26 10:55:13;;;;;;;;;;;;;;;-139.48;100.00;61774.03;4977020;28;19933;-74
2022/01/26 10:57:57;;;;;;;;;;;;;;;-139.48;100.00;61774.03;4976917;28;20389;-73
2022/01/26 11:00:41;;;;;;;;;;;;;;;-139.48;100.00;61774.03;4977938;28;19968;-74
2022/01/26 11:03:25;;;;;;;;;;;;;;;-139.48;100.00;61774.03;4976910;28;20020;-73
2022/01/26 11:06:09;;;;;;;;;;;;;;;-139.48;100.00;61774.03;4976797;28;20481;-72
2022/01/26 11:08:58;;;;;;;;;;;;;;;-139.48;100.00;61774.03;4976006;28;20306;-73
2022/01/26 11:11:41;;;;;;;;;;;;;;;-139.48;100.00;61774.03;4977360;28;19925;-73
2022/01/26 11:14:25;;;;;;;;;;;;;;;-139.48;100.00;61774.03;4976670;28;20286;-73
2022/01/26 11:17:10;;;;;;;;;;;;;;;-139.48;100.00;61774.03;4976399;28;19928;-72
2022/01/26 11:19:56;;;;;;;;;;;;;;;-139.48;100.00;61774.03;4977657;28;20286;-73
2022/01/26 11:22:47;;;;;;;;;;;;;;;-139.48;100.00;61774.03;4976206;28;20294;-71
2022/01/26 11:25:39;;;;;;;;;;;;;;;-139.48;100.00;61774.03;4976123;28;19944;-73
2022/01/26 11:28:24;;;;;;;;;;;;;;;-139.48;100.00;61774.03;4989968;28;19988;-73
2022/01/26 11:31:14;;;;;;;;;;;;;;;-139.48;100.00;61774.03;4977023;28;19968;-73
2022/01/26 11:33:58;;;;;;;;;;;;;;;-139.48;100.00;61774.03;4975984;28;20309;-73
2022/01/26 11:36:42;;;;;;;;;;;;;;;-139.48;100.00;61774.03;4975760;28;19929;-73
2022/01/26 11:45:36;;;;;;;;;;;;;;;-139.48;100.00;61774.03;5015119;28;19924;-71
2022/01/26 11:48:22;;;;;;;;;;;;;;;-139.48;100.00;61774.03;5015058;28;19941;-72
2022/01/26 11:51:05;;;;;;;;;;;;;;;-139.48;100.00;61774.03;5015237;28;19940;-71
2022/01/26 11:53:49;;;;;;;;;;;;;;;-139.48;100.00;61774.03;5018016;28;19943;-69
2022/01/26 11:56:34;;;;;;;;;;;;;;;-139.48;100.00;61774.03;5020599;28;19928;-71
2022/01/26 11:59:19;;;;;;;;;;;;;;;-139.48;100.00;61774.03;5016939;28;19968;-71
2022/01/26 12:02:10;;;;;;;;;;;;;;;-139.48;100.00;61774.03;5003659;28;20419;-71
2022/01/26 12:04:58;;;;;;;;;;;;;;;-139.48;100.00;61774.03;5016989;28;19968;-71
2022/01/26 12:07:52;;;;;;;;;;;;;;;-139.48;100.00;61774.03;5015768;28;19924;-71
2022/01/26 12:10:38;;;;;;;;;;;;;;;-139.48;100.00;61774.03;5015888;28;19985;-72
2022/01/26 12:13:27;;;;;;;;;;;;;;;-139.48;100.00;61774.03;5015543;28;19925;-71
2022/01/26 12:16:15;;;;;;;;;;;;;;;-139.48;100.00;61774.03;5014152;28;19929;-71
2022/01/26 12:19:51;;;;;;;;;;;;;;;-139.48;100.00;61774.03;5014599;28;20333;-71
2022/01/26 12:37:47;;;;;;;;;;;;;;;-139.48;100.00;61774.03;5015236;28;19936;-71
2022/01/26 12:43:43;;;;;;;;;;;;;;;-139.48;100.00;61774.03;5013969;28;19924;-71
2022/01/26 12:46:30;;;;;;;;;;;;;;;-139.48;100.00;61774.03;5013859;28;20396;-71
2022/01/26 12:49:15;;;;;;;;;;;;;;;-139.48;100.00;61774.03;5014618;28;20003;-71
2022/01/26 12:51:59;;;;;;;;;;;;;;;-139.48;100.00;61774.03;5012871;28;19947;-71
2022/01/26 12:54:44;;;;;;;;;;;;;;;-139.48;100.00;61774.03;4999742;28;19963;-71
2022/01/26 12:57:27;;;;;;;;;;;;;;;-139.48;100.00;61774.03;5013822;28;19944;-72
2022/01/26 13:00:12;;;;;;;;;;;;;;;-139.48;100.00;61774.03;5014268;28;19987;-71
2022/01/26 13:02:56;;;;;;;;;;;;;;;-139.48;100.00;61774.03;5013412;28;19971;-71
2022/01/26 13:05:40;;;;;;;;;;;;;;;-139.48;100.00;61774.03;5013226;28;19984;-71
2022/01/26 13:08:24;;;;;;;;;;;;;;;-139.48;100.00;61774.03;5013445;28;20131;-71
2022/01/26 13:11:07;;;;;;;;;;;;;;;-139.48;100.00;61774.03;5013355;28;19924;-71
2022/01/26 13:14:12;;;;;;;;;;;;;;;-139.48;100.00;61774.03;5014152;28;19925;-69
2022/01/26 13:17:16;;;;;;;;;;;;;;;-139.48;100.00;61774.03;5013905;28;19929;-70
2022/01/26 13:20:56;;;;;;;;;;;;;;;-139.48;100.00;61774.03;5013981;28;20023;-70
2022/01/26 13:26:20;;;;;;;;;;;;;;;-139.48;100.00;61774.03;5014126;28;19967;-70
2022/01/26 13:29:19;;;;;;;;;;;;;;;-139.48;100.00;61774.03;5001277;28;20009;-71
2022/01/26 13:35:14;;;;;;;;;;;;;;;-139.48;100.00;61774.03;5013396;28;19956;-70
2022/01/26 13:46:59;;;;;;;;;;;;;;;-139.48;100.00;61774.03;5013047;28;19979;-71
2022/01/26 13:49:49;;;;;;;;;;;;;;;-139.48;100.00;61774.03;5012904;28;20292;-70
2022/01/26 14:01:27;;;;;;;;;;;;;;;-139.48;100.00;61774.03;5013477;28;20376;-71
2022/01/26 14:04:11;;;;;;;;;;;;;;;-139.48;100.00;61774.03;5013688;28;19975;-71
2022/01/26 14:06:55;;;;;;;;;;;;;;;-139.48;100.00;61774.03;5012661;28;19980;-71
2022/01/26 14:09:40;;;;;;;;;;;;;;;-139.48;100.00;61774.03;5013432;28;20027;-71
2022/01/26 14:12:29;;;;;;;;;;;;;;;-139.48;100.00;61774.03;5012452;28;19983;-71
2022/01/26 14:15:18;;;;;;;;;;;;;;;-139.48;100.00;61774.03;5013175;28;20463;-71
2022/01/26 14:23:59;;;;;;;;;;;;;;;-139.48;100.00;61774.03;5013059;28;19968;-71
2022/01/26 14:26:47;;;;;;;;;;;;;;;-139.48;100.00;61774.03;5012704;28;19928;-71
2022/01/26 14:29:41;;;;;;;;;;;;;;;-139.48;100.00;61774.03;5011932;28;19924;-71
2022/01/26 14:33:00;;;;;;;;;;;;;;;-139.48;100.00;61774.03;5013075;28;19972;-71
2022/01/26 15:44:48;;;;;;;;;;;;;;;-139.48;100.00;61774.03;5015468;28;19924;-71
2022/01/26 16:18:23;;;;;;;;;;;;;;;-139.48;100.00;61774.03;5015546;28;19928;-72
2022/01/26 16:20:49;;;;;;;;;;;;;;;-139.48;100.00;61774.03;5014622;28;19925;-71
2022/01/26 16:27:03;;;;;;;;;;;;;;;-139.48;100.00;61774.03;5014298;28;19928;-71
2022/01/26 16:39:04;;;;;;;;;;;;;;;-139.48;100.00;61774.03;5014722;28;19951;-72
2022/01/26 17:21:15;;;;;;;;;;;;;;;-139.48;100.00;61774.03;5013557;28;19925;-71
2022/01/26 17:24:53;;;;;;;;;;;;;;;-139.48;100.00;61774.03;5013512;28;19921;-71
2022/01/26 18:04:25;;;;;;;;;;;;;;;-139.48;100.00;61774.03;5013775;28;19944;-71
2022/01/26 18:13:52;;;;;;;;;;;;;;;-139.48;100.00;61774.03;5014400;28;19937;-71
2022/01/26 18:49:25;;;;;;;;;;;;;;;-139.48;100.00;61774.03;5018066;28;19971;-72
2022/01/26 18:52:09;;;;;;;;;;;;;;;-139.48;100.00;61774.03;5020678;28;19992;-71
2022/01/26 18:54:53;;;;;;;;;;;;;;;-139.48;100.00;61774.03;5021339;28;19924;-72
2022/01/26 18:57:37;;;;;;;;;;;;;;;-139.48;100.00;61774.03;5019503;28;20056;-72
2022/01/26 19:00:21;;;;;;;;;;;;;;;-139.48;100.00;61774.03;5016899;28;20068;-71
2022/01/26 19:03:05;;;;;;;;;;;;;;;-139.48;100.00;61774.03;5015866;28;20352;-71
2022/01/26 19:05:49;;;;;;;;;;;;;;;-139.48;100.00;61774.03;5015765;28;20009;-71
2022/01/26 19:08:33;;;;;;;;;;;;;;;-139.48;100.00;61774.03;5016624;28;19924;-70
2022/01/26 19:11:20;;;;;;;;;;;;;;;-139.48;100.00;61774.03;5016382;28;19972;-71
2022/01/26 19:14:06;;;;;;;;;;;;;;;-139.48;100.00;61774.03;5016516;28;20349;-71
2022/01/26 19:16:57;;;;;;;;;;;;;;;-139.48;100.00;61774.03;5016984;28;19927;-71
2022/01/26 19:22:52;;;;;;;;;;;;;;;-139.48;100.00;61774.03;5016611;28;20419;-71
2022/01/26 19:25:42;;;;;;;;;;;;;;;-139.48;100.00;61774.03;5015636;28;19928;-71
2022/01/26 19:28:31;;;;;;;;;;;;;;;-139.48;100.00;61774.03;5015341;28;19944;-71
2022/01/26 19:47:01;;;;;;;;;;;;;;;-139.48;100.00;61774.03;5015934;28;19927;-70
2022/01/26 19:52:43;;;;;;;;;;;;;;;-139.48;100.00;61774.03;5015815;28;19925;-71
2022/01/26 19:55:26;;;;;;;;;;;;;;;-139.48;100.00;61774.03;5014894;28;19964;-72
2022/01/26 19:58:10;;;;;;;;;;;;;;;-139.48;100.00;61774.03;5015073;28;19924;-71
2022/01/26 20:00:54;;;;;;;;;;;;;;;-139.48;100.00;61774.03;5000354;28;19968;-70
2022/01/26 20:03:38;;;;;;;;;;;;;;;-139.48;100.00;61774.03;5014985;28;19987;-69
2022/01/26 20:06:22;;;;;;;;;;;;;;;-139.48;100.00;61774.03;5015931;28;20020;-71
2022/01/26 20:09:23;;;;;;;;;;;;;;;-139.48;100.00;61774.03;5014800;28;19927;-70
2022/01/26 20:12:17;;;;;;;;;;;;;;;-139.48;100.00;61774.03;5015755;28;20385;-71
2022/01/26 20:15:00;;;;;;;;;;;;;;;-139.48;100.00;61774.03;5015453;28;20016;-68
2022/01/26 20:17:45;;;;;;;;;;;;;;;-139.48;100.00;61774.03;5014704;28;19988;-71
2022/01/26 20:20:29;;;;;;;;;;;;;;;-139.48;100.00;61774.03;5014756;28;19924;-69
2022/01/26 20:23:14;;;;;;;;;;;;;;;-139.48;100.00;61774.03;5014430;28;19968;-71
2022/01/26 20:26:00;;;;;;;;;;;;;;;-139.48;100.00;61774.03;5015607;28;19940;-70
2022/01/26 20:28:45;;;;;;;;;;;;;;;-139.48;100.00;61774.03;5014453;28;19925;-70
2022/01/26 20:31:29;;;;;;;;;;;;;;;-139.48;100.00;61774.03;5014621;28;19983;-70
2022/01/26 20:34:14;;;;;;;;;;;;;;;-139.48;100.00;61774.03;5015147;28;19925;-69
2022/01/26 20:36:58;;;;;;;;;;;;;;;-139.48;100.00;61774.03;5014119;28;19976;-69
2022/01/26 20:39:42;;;;;;;;;;;;;;;-139.48;100.00;61774.03;5015118;28;19968;-69
2022/01/26 20:42:26;;;;;;;;;;;;;;;-139.48;100.00;61774.03;5000799;28;20032;-69
2022/01/26 20:45:10;;;;;;;;;;;;;;;-139.48;100.00;61774.03;5014095;28;20389;-69